Granite Quarry, North Carolina
Current Conditions -  °F | °C
As of 9:35 AM on Monday 26 Jan 2015 (Local Time) from KRUQ Reporting Station
Scattered Clouds Scattered Clouds  
Wind Chill: 42°   Ceiling: Unl
Heat Index: 42°   Visibility: 10mi
Dew Point: 37°   Wind: 3mph
Humidity: 83%   Direction: 310°NW
Pressure: 29.65"   Gusts: NA
Location:  35.61°N, 80.45°W
Report Text: KRUQ 261435Z AUTO 31003KT 10SM SCT120 06/03 A2965 RMK AO2 T00560029
Loading
Personal Weather Stations






























Interactive Weather Map New forecast layout! Learn more

10-Day Weather Forecast

Advertisements
Track Severe Weather on mobile